Time;durP1;ratioP1;P1;durP2;ratioP2;P2;SDS_P1;SDS_P2;PMS_P1;PMS_P2;Temp;Humidity;BMP_temperature;BMP_pressure;BME280_temperature;BME280_humidity;BME280_pressure;Samples;Min_cycle;Max_cycle;Signal;HPM_P1;HPM_P2
2021/06/24 00:00:35;;;;;;;6.97;2.67;;;18.00;90.30;;;;;;5056651;28;20032;-93
2021/06/24 00:03:07;;;;;;;6.15;2.72;;;18.00;90.20;;;;;;5055715;28;20083;-91
2021/06/24 00:05:33;;;;;;;8.13;3.05;;;18.00;90.30;;;;;;5021752;28;20021;-91
2021/06/24 00:07:58;;;;;;;5.75;2.72;;;18.00;90.20;;;;;;5035333;28;20025;-92
2021/06/24 00:10:24;;;;;;;5.25;2.90;;;18.00;90.20;;;;;;5041084;28;20402;-91
2021/06/24 00:12:50;;;;;;;5.95;3.00;;;18.00;90.20;;;;;;5041362;28;20063;-92
2021/06/24 00:15:15;;;;;;;5.32;2.80;;;18.00;90.10;;;;;;5039667;28;20033;-92
2021/06/24 00:17:42;;;;;;;7.93;3.17;;;17.90;90.10;;;;;;5047621;28;20032;-91
2021/06/24 00:20:08;;;;;;;7.93;2.85;;;18.00;90.30;;;;;;5059409;28;20025;-92
2021/06/24 00:22:33;;;;;;;6.10;2.70;;;17.90;90.20;;;;;;5054225;28;20059;-92
2021/06/24 00:24:59;;;;;;;7.82;3.00;;;17.90;90.10;;;;;;5024260;28;20065;-91
2021/06/24 00:27:25;;;;;;;5.82;2.72;;;17.90;90.00;;;;;;5037039;28;20167;-92
2021/06/24 00:29:50;;;;;;;6.20;2.83;;;17.80;89.80;;;;;;5032089;28;20091;-92
2021/06/24 00:32:16;;;;;;;11.32;3.15;;;17.80;90.10;;;;;;5027107;28;20031;-91
2021/06/24 00:34:42;;;;;;;8.65;3.47;;;17.80;90.20;;;;;;5048462;28;20067;-91
2021/06/24 00:37:08;;;;;;;7.75;3.22;;;17.80;90.10;;;;;;5039178;28;20486;-91
2021/06/24 00:39:34;;;;;;;8.40;3.33;;;17.80;90.00;;;;;;5020628;28;20079;-91
2021/06/24 00:42:00;;;;;;;5.32;3.03;;;17.80;89.90;;;;;;5020676;28;20482;-92
2021/06/24 00:44:26;;;;;;;7.22;3.13;;;17.80;90.00;;;;;;5042974;28;20048;-92
2021/06/24 00:46:52;;;;;;;6.03;2.70;;;17.70;90.00;;;;;;5027183;28;20107;-91
2021/06/24 00:49:19;;;;;;;5.93;2.97;;;17.70;90.00;;;;;;5041220;28;20028;-92
2021/06/24 00:51:45;;;;;;;10.73;2.97;;;17.70;90.10;;;;;;5045372;28;20107;-92
2021/06/24 00:54:10;;;;;;;5.97;2.75;;;17.70;90.00;;;;;;5049021;28;20501;-91
2021/06/24 00:56:36;;;;;;;6.18;2.65;;;17.70;90.00;;;;;;5023826;28;20545;-92
2021/06/24 00:59:04;;;;;;;5.38;2.50;;;17.70;90.00;;;;;;5038370;28;20024;-91
2021/06/24 01:01:32;;;;;;;6.10;2.90;;;17.70;89.90;;;;;;5038450;28;20029;-91
2021/06/24 01:03:57;;;;;;;5.00;2.78;;;17.70;90.00;;;;;;5021858;28;20130;-92
2021/06/24 01:06:23;;;;;;;4.88;2.70;;;17.60;89.80;;;;;;5037051;28;20052;-91
2021/06/24 01:08:55;;;;;;;5.97;2.90;;;17.60;89.80;;;;;;5054074;28;20437;-92
2021/06/24 01:11:21;;;;;;;10.80;3.25;;;17.60;90.00;;;;;;5044208;28;20382;-93
2021/06/24 01:13:48;;;;;;;4.82;2.85;;;17.60;89.90;;;;;;5036755;28;20032;-92
2021/06/24 01:16:14;;;;;;;6.65;3.00;;;17.60;89.60;;;;;;5054507;28;20364;-92
2021/06/24 01:18:39;;;;;;;5.65;2.97;;;17.50;89.60;;;;;;5039798;28;20039;-92
2021/06/24 01:21:05;;;;;;;6.30;2.65;;;17.50;89.90;;;;;;5034307;28;20021;-93
2021/06/24 01:23:40;;;;;;;6.40;2.92;;;17.50;90.10;;;;;;5030535;28;20080;-91
2021/06/24 01:26:06;;;;;;;7.65;3.15;;;17.50;90.00;;;;;;5036638;28;20112;-91
2021/06/24 01:28:32;;;;;;;6.10;3.05;;;17.50;90.10;;;;;;5062036;22;20451;-89
2021/06/24 01:30:58;;;;;;;4.72;2.85;;;17.50;90.00;;;;;;5039444;28;20036;-89
2021/06/24 01:33:25;;;;;;;4.93;3.17;;;17.50;90.00;;;;;;5055671;28;20452;-90
2021/06/24 01:36:00;;;;;;;5.40;2.60;;;17.40;90.20;;;;;;5039796;28;20045;-89
2021/06/24 01:38:26;;;;;;;4.50;2.55;;;17.40;90.30;;;;;;5055705;28;20499;-89
2021/06/24 01:40:52;;;;;;;8.13;3.00;;;17.40;90.30;;;;;;5039336;28;20024;-89
2021/06/24 01:43:18;;;;;;;7.57;3.47;;;17.40;90.20;;;;;;5039032;28;20119;-89
2021/06/24 01:45:49;;;;;;;6.05;2.83;;;17.40;90.10;;;;;;5055714;28;20474;-89
2021/06/24 01:48:15;;;;;;;8.57;3.47;;;17.40;90.10;;;;;;5055635;28;20028;-89
2021/06/24 01:50:42;;;;;;;4.57;2.58;;;17.40;90.10;;;;;;5055571;28;20020;-90
2021/06/24 01:53:07;;;;;;;6.57;2.70;;;17.30;90.10;;;;;;5055908;28;20021;-89
2021/06/24 01:55:34;;;;;;;5.68;2.55;;;17.30;90.00;;;;;;5039198;28;20047;-89
2021/06/24 01:58:02;;;;;;;6.22;2.85;;;17.30;90.10;;;;;;5036057;28;20120;-89
2021/06/24 02:00:28;;;;;;;5.03;3.00;;;17.30;90.20;;;;;;5045050;28;20033;-89
2021/06/24 02:02:55;;;;;;;6.47;3.47;;;17.30;90.30;;;;;;5024071;28;20020;-89
2021/06/24 02:05:21;;;;;;;6.25;3.40;;;17.30;90.40;;;;;;5068285;28;20433;-89
2021/06/24 02:07:47;;;;;;;5.25;3.20;;;17.30;90.40;;;;;;5039389;28;20064;-88
2021/06/24 02:10:13;;;;;;;5.85;2.90;;;17.20;90.40;;;;;;5039532;28;20059;-88
2021/06/24 02:12:40;;;;;;;5.75;2.92;;;17.20;90.40;;;;;;5039467;28;20028;-88
2021/06/24 02:15:08;;;;;;;6.32;3.70;;;17.20;90.40;;;;;;5056079;28;20063;-89
2021/06/24 02:17:35;;;;;;;5.38;2.90;;;17.20;90.40;;;;;;5056661;28;20111;-89
2021/06/24 02:20:01;;;;;;;6.65;3.10;;;17.20;90.50;;;;;;5039522;28;20020;-90
2021/06/24 02:22:27;;;;;;;7.65;3.03;;;17.20;90.40;;;;;;5055409;28;20107;-89
2021/06/24 02:24:52;;;;;;;4.30;2.92;;;17.20;90.20;;;;;;5038910;28;20029;-89
2021/06/24 02:27:18;;;;;;;7.28;3.50;;;17.20;90.30;;;;;;5049234;28;20120;-88
2021/06/24 02:29:45;;;;;;;6.60;3.35;;;17.10;90.50;;;;;;5055147;28;20485;-89
2021/06/24 02:32:11;;;;;;;7.53;3.80;;;17.10;90.50;;;;;;5038947;28;20037;-89
2021/06/24 02:34:38;;;;;;;6.00;3.08;;;17.10;90.40;;;;;;5039353;28;20079;-91
2021/06/24 02:37:04;;;;;;;5.72;3.00;;;17.10;90.50;;;;;;5055495;28;20025;-88
2021/06/24 02:39:29;;;;;;;5.15;3.13;;;17.10;90.40;;;;;;5055819;28;20467;-88
2021/06/24 02:41:55;;;;;;;6.18;3.00;;;17.10;90.40;;;;;;5055203;28;20520;-89
2021/06/24 02:44:55;;;;;;;5.65;3.35;;;17.10;90.40;;;;;;5046028;28;20052;-88
2021/06/24 02:47:21;;;;;;;6.28;3.60;;;17.10;90.50;;;;;;5061254;28;20469;-89
2021/06/24 02:49:46;;;;;;;6.70;3.38;;;17.00;90.60;;;;;;5025713;28;20033;-89
2021/06/24 02:52:12;;;;;;;7.05;3.53;;;17.10;90.70;;;;;;5022090;28;20110;-88
2021/06/24 02:54:38;;;;;;;5.65;3.30;;;17.10;90.60;;;;;;5038649;28;20035;-90
2021/06/24 02:57:04;;;;;;;4.95;3.20;;;17.00;90.50;;;;;;5055491;28;20051;-89
2021/06/24 02:59:30;;;;;;;5.75;2.95;;;17.00;90.50;;;;;;5056905;28;20028;-89
2021/06/24 03:01:56;;;;;;;7.20;3.10;;;17.00;90.50;;;;;;5047911;28;20079;-88
2021/06/24 03:04:22;;;;;;;5.60;3.08;;;17.00;90.50;;;;;;5055326;28;20009;-90
2021/06/24 03:06:52;;;;;;;9.15;3.53;;;17.00;90.50;;;;;;5018515;28;20487;-89
2021/06/24 03:09:19;;;;;;;6.85;3.22;;;17.00;90.60;;;;;;5047069;28;20481;-89
2021/06/24 03:11:46;;;;;;;6.13;3.42;;;16.90;90.60;;;;;;5038406;28;20016;-89
2021/06/24 03:14:11;;;;;;;5.95;3.58;;;16.90;90.60;;;;;;5055047;28;20090;-89
2021/06/24 03:16:37;;;;;;;5.38;2.95;;;16.90;90.60;;;;;;5038017;28;20028;-89
2021/06/24 03:19:04;;;;;;;5.00;2.95;;;16.90;90.60;;;;;;5054653;28;20028;-88
2021/06/24 03:21:30;;;;;;;8.07;3.40;;;16.90;90.80;;;;;;5054949;28;20080;-89
2021/06/24 03:23:56;;;;;;;5.93;3.22;;;16.90;90.90;;;;;;5038502;28;20473;-89
2021/06/24 03:26:21;;;;;;;5.10;3.15;;;16.80;90.90;;;;;;5041912;28;20027;-89
2021/06/24 03:28:47;;;;;;;4.68;3.10;;;16.90;91.10;;;;;;5041403;28;20064;-89
2021/06/24 03:31:13;;;;;;;5.68;3.58;;;16.80;90.90;;;;;;5041798;28;20048;-89
2021/06/24 03:33:39;;;;;;;6.20;3.40;;;16.90;90.80;;;;;;5041492;28;20524;-90
2021/06/24 03:36:05;;;;;;;5.50;3.20;;;16.80;90.90;;;;;;5041754;28;20017;-89
2021/06/24 03:38:31;;;;;;;7.45;3.38;;;16.80;91.00;;;;;;5057989;28;20446;-90
2021/06/24 03:40:57;;;;;;;4.88;2.97;;;16.80;90.90;;;;;;5057869;28;20012;-91
2021/06/24 03:43:23;;;;;;;10.50;3.88;;;16.80;91.00;;;;;;5041555;28;20040;-90
2021/06/24 03:45:49;;;;;;;5.47;3.22;;;16.80;91.00;;;;;;5041237;28;20028;-89
2021/06/24 03:48:14;;;;;;;5.70;3.30;;;16.80;91.10;;;;;;5041343;28;20035;-90
2021/06/24 03:50:40;;;;;;;6.13;3.28;;;16.80;91.10;;;;;;5040717;28;20037;-89
2021/06/24 03:53:06;;;;;;;7.45;3.40;;;16.70;90.90;;;;;;5057819;28;20020;-89
2021/06/24 03:55:41;;;;;;;6.97;3.33;;;16.80;91.10;;;;;;5041431;28;20029;-88
2021/06/24 03:58:07;;;;;;;6.40;3.40;;;16.70;91.10;;;;;;5071418;28;20024;-89
2021/06/24 04:00:35;;;;;;;6.88;3.10;;;16.70;91.10;;;;;;5057708;28;20113;-89
2021/06/24 04:03:01;;;;;;;7.00;3.17;;;16.70;91.10;;;;;;5057182;28;20433;-89
2021/06/24 04:05:30;;;;;;;5.22;3.15;;;16.70;91.10;;;;;;5057573;28;20013;-89
2021/06/24 04:07:56;;;;;;;7.28;3.40;;;16.70;91.10;;;;;;5023455;28;20017;-89
2021/06/24 04:10:40;;;;;;;4.57;3.05;;;16.70;91.10;;;;;;5052172;28;20107;-90
2021/06/24 04:13:06;;;;;;;7.05;3.30;;;16.70;91.10;;;;;;5058750;28;20119;-90
2021/06/24 04:15:33;;;;;;;8.20;3.08;;;16.70;91.10;;;;;;5069947;28;20071;-90
2021/06/24 04:18:07;;;;;;;6.53;3.20;;;16.70;91.10;;;;;;5040998;28;20032;-89
2021/06/24 04:20:34;;;;;;;6.22;3.30;;;16.60;91.20;;;;;;5057440;28;20024;-89
2021/06/24 04:23:00;;;;;;;8.38;3.80;;;16.70;91.30;;;;;;5057389;28;20017;-90
2021/06/24 04:25:26;;;;;;;6.00;3.38;;;16.60;91.20;;;;;;5056910;28;20020;-90
2021/06/24 04:27:52;;;;;;;5.40;3.25;;;16.60;91.20;;;;;;5057036;28;20020;-89
2021/06/24 04:30:19;;;;;;;7.32;3.80;;;16.60;91.40;;;;;;5040328;28;20056;-89
2021/06/24 04:32:45;;;;;;;6.03;3.53;;;16.60;91.40;;;;;;5057372;28;20067;-90
2021/06/24 04:35:11;;;;;;;6.28;3.75;;;16.60;91.40;;;;;;5057122;28;20029;-90
2021/06/24 04:37:38;;;;;;;7.60;3.42;;;16.60;91.40;;;;;;5056309;28;20021;-90
2021/06/24 04:40:06;;;;;;;7.53;3.90;;;16.60;91.30;;;;;;5057006;28;20082;-89
2021/06/24 04:42:31;;;;;;;4.53;3.33;;;16.60;91.40;;;;;;5056676;28;20020;-89
2021/06/24 04:44:57;;;;;;;9.63;3.33;;;16.60;91.40;;;;;;5040347;28;20039;-89
2021/06/24 04:47:24;;;;;;;6.25;2.95;;;16.60;91.40;;;;;;5040296;28;20378;-90
2021/06/24 04:49:49;;;;;;;7.00;3.20;;;16.60;91.50;;;;;;5066535;28;20028;-88
2021/06/24 04:52:16;;;;;;;6.57;3.22;;;16.60;91.50;;;;;;5061079;28;20398;-88
2021/06/24 04:54:42;;;;;;;6.57;3.08;;;16.60;91.50;;;;;;5040164;28;20028;-89
2021/06/24 04:57:08;;;;;;;6.65;3.85;;;16.60;91.60;;;;;;5056983;28;20466;-90
2021/06/24 04:59:34;;;;;;;5.20;3.30;;;16.60;91.60;;;;;;5025612;28;20032;-89
2021/06/24 05:02:00;;;;;;;9.07;3.47;;;16.60;91.60;;;;;;5048809;28;20029;-89
2021/06/24 05:04:26;;;;;;;5.93;3.35;;;16.60;91.60;;;;;;5040396;28;20021;-89
2021/06/24 05:06:55;;;;;;;6.15;3.45;;;16.60;91.70;;;;;;5042455;28;20086;-89
2021/06/24 05:09:28;;;;;;;6.30;3.10;;;16.60;91.80;;;;;;5040415;28;20436;-88
2021/06/24 05:11:54;;;;;;;6.72;3.30;;;16.70;91.90;;;;;;5056525;28;20016;-88
2021/06/24 05:14:20;;;;;;;6.18;2.90;;;16.70;91.90;;;;;;5057092;28;20035;-89
2021/06/24 05:16:46;;;;;;;6.38;3.50;;;16.60;91.90;;;;;;5056977;28;20457;-88
2021/06/24 05:19:12;;;;;;;7.45;3.28;;;16.70;92.00;;;;;;5057573;28;20462;-89
2021/06/24 05:21:39;;;;;;;5.97;3.22;;;16.70;91.90;;;;;;5043268;28;20037;-89
2021/06/24 05:24:05;;;;;;;6.50;3.20;;;16.70;92.00;;;;;;5055810;28;20070;-89
2021/06/24 05:26:31;;;;;;;6.00;3.20;;;16.70;92.10;;;;;;5053379;28;20111;-89
2021/06/24 05:28:57;;;;;;;5.43;3.30;;;16.70;92.10;;;;;;5040008;28;20565;-88
2021/06/24 05:31:23;;;;;;;7.72;3.00;;;16.70;92.10;;;;;;5040167;28;20033;-91
2021/06/24 05:33:49;;;;;;;7.63;3.50;;;16.70;92.10;;;;;;5070301;28;20067;-90
2021/06/24 05:36:15;;;;;;;6.18;3.58;;;16.70;92.20;;;;;;5039848;28;20033;-90
2021/06/24 05:38:41;;;;;;;4.80;2.92;;;16.70;92.20;;;;;;5055923;28;20028;-89
2021/06/24 05:41:07;;;;;;;4.93;3.03;;;16.70;92.20;;;;;;5040227;28;20119;-90
2021/06/24 05:43:36;;;;;;;6.95;2.83;;;16.70;92.10;;;;;;5057761;28;20027;-90
2021/06/24 05:46:04;;;;;;;5.55;3.03;;;16.70;92.20;;;;;;5050343;28;20526;-90
2021/06/24 05:48:32;;;;;;;5.85;3.20;;;16.70;92.10;;;;;;5062195;28;20024;-89
2021/06/24 05:50:58;;;;;;;5.00;3.10;;;16.70;92.10;;;;;;5055520;28;20028;-89
2021/06/24 05:53:27;;;;;;;5.13;3.13;;;16.70;92.10;;;;;;5039164;28;20024;-88
2021/06/24 05:55:53;;;;;;;5.93;3.33;;;16.70;92.20;;;;;;5022768;28;20033;-89
2021/06/24 05:58:29;;;;;;;5.70;3.25;;;16.70;92.20;;;;;;5038764;28;20055;-89
2021/06/24 06:00:56;;;;;;;5.95;3.55;;;16.70;92.20;;;;;;5055704;28;20039;-89
2021/06/24 06:03:22;;;;;;;6.13;3.53;;;16.70;92.20;;;;;;5038982;28;20024;-89
2021/06/24 06:05:49;;;;;;;7.03;3.30;;;16.70;92.30;;;;;;5038972;28;20071;-89
2021/06/24 06:08:15;;;;;;;5.95;3.10;;;16.80;92.30;;;;;;5058422;28;20439;-89
2021/06/24 06:10:41;;;;;;;5.47;3.30;;;16.80;92.40;;;;;;5065809;28;20500;-89
2021/06/24 06:13:08;;;;;;;6.00;3.33;;;16.80;92.40;;;;;;5055243;28;20055;-90
2021/06/24 06:15:36;;;;;;;7.03;4.03;;;16.80;92.40;;;;;;5055208;28;20086;-90
2021/06/24 06:18:15;;;;;;;10.05;3.80;;;16.80;92.30;;;;;;5055103;28;20025;-90
2021/06/24 06:20:44;;;;;;;7.05;3.58;;;16.80;92.40;;;;;;5062555;28;20098;-89
2021/06/24 06:23:10;;;;;;;4.75;3.38;;;16.80;92.30;;;;;;5060902;28;20021;-89
2021/06/24 06:25:36;;;;;;;5.88;3.50;;;16.80;92.30;;;;;;5055358;28;20025;-90
2021/06/24 06:28:02;;;;;;;6.85;3.70;;;16.80;92.30;;;;;;5038646;28;20079;-89
2021/06/24 06:30:28;;;;;;;7.35;3.53;;;16.80;92.30;;;;;;5054727;28;20051;-89
2021/06/24 06:32:56;;;;;;;8.68;3.80;;;16.80;92.30;;;;;;5035051;28;20468;-89
2021/06/24 06:35:22;;;;;;;7.10;3.42;;;16.80;92.40;;;;;;5054870;28;20033;-90
2021/06/24 06:37:48;;;;;;;5.25;3.30;;;16.80;92.30;;;;;;5055122;28;20043;-90
2021/06/24 06:40:14;;;;;;;6.43;3.33;;;16.80;92.30;;;;;;5055289;28;20048;-90
2021/06/24 06:42:40;;;;;;;7.40;3.88;;;16.80;92.10;;;;;;5054954;28;20470;-89
2021/06/24 06:45:07;;;;;;;6.18;3.30;;;16.80;92.00;;;;;;5054693;28;20013;-89
2021/06/24 06:47:33;;;;;;;6.07;3.72;;;16.80;92.10;;;;;;5035026;28;20475;-90
2021/06/24 06:49:59;;;;;;;6.40;3.28;;;16.80;92.10;;;;;;5055050;28;20103;-89
2021/06/24 06:52:24;;;;;;;7.20;3.20;;;16.80;92.00;;;;;;5051537;28;20385;-90
2021/06/24 06:54:50;;;;;;;7.72;3.58;;;16.80;92.00;;;;;;5039411;28;20486;-90
2021/06/24 06:57:16;;;;;;;6.13;3.70;;;16.90;92.00;;;;;;5055205;28;20115;-90
2021/06/24 06:59:42;;;;;;;6.93;3.58;;;16.90;91.90;;;;;;5042628;28;20031;-90
2021/06/24 07:02:09;;;;;;;5.97;3.63;;;16.90;91.90;;;;;;5049702;28;20021;-90
2021/06/24 07:04:34;;;;;;;6.38;3.67;;;16.90;91.80;;;;;;5058540;28;20099;-89
2021/06/24 07:07:00;;;;;;;6.05;3.47;;;16.90;91.70;;;;;;5058599;28;20025;-89
2021/06/24 07:09:26;;;;;;;5.80;3.17;;;16.90;91.60;;;;;;5042173;28;20035;-89
2021/06/24 07:11:51;;;;;;;6.20;3.22;;;16.90;91.70;;;;;;5042184;28;20128;-90
2021/06/24 07:14:18;;;;;;;6.78;2.72;;;16.90;91.70;;;;;;5058650;28;20428;-90
2021/06/24 07:16:44;;;;;;;5.78;2.97;;;17.00;91.80;;;;;;5025463;28;20029;-89
2021/06/24 07:19:10;;;;;;;5.78;2.88;;;17.00;91.70;;;;;;5058931;28;20021;-89
2021/06/24 07:21:36;;;;;;;4.95;2.80;;;17.00;91.70;;;;;;5041799;28;20107;-89
2021/06/24 07:24:01;;;;;;;5.32;3.10;;;17.00;91.80;;;;;;5058752;28;20020;-90
2021/06/24 07:26:28;;;;;;;5.00;2.80;;;17.10;91.80;;;;;;5040026;28;20166;-89
2021/06/24 07:28:54;;;;;;;6.00;3.35;;;17.10;91.90;;;;;;5072274;23;20054;-89
2021/06/24 07:31:19;;;;;;;4.72;3.22;;;17.10;91.80;;;;;;5078917;28;20087;-90
2021/06/24 07:33:45;;;;;;;5.70;3.17;;;17.10;91.60;;;;;;5059559;28;20077;-89
2021/06/24 07:36:11;;;;;;;6.85;3.20;;;17.10;91.60;;;;;;5079278;28;20392;-90
2021/06/24 07:38:39;;;;;;;5.13;2.90;;;17.20;91.60;;;;;;5060335;28;20029;-89
2021/06/24 07:41:05;;;;;;;5.28;3.17;;;17.20;91.70;;;;;;5042006;28;20101;-88
2021/06/24 07:43:30;;;;;;;6.93;3.28;;;17.20;91.70;;;;;;5061457;28;20059;-88
2021/06/24 07:45:56;;;;;;;5.65;2.70;;;17.20;91.50;;;;;;5077997;28;20024;-88
2021/06/24 07:48:22;;;;;;;6.00;3.22;;;17.20;91.30;;;;;;5078539;28;20082;-88
2021/06/24 07:50:48;;;;;;;5.15;2.95;;;17.20;91.40;;;;;;5078250;28;20020;-88
2021/06/24 07:53:14;;;;;;;5.20;3.17;;;17.20;91.50;;;;;;5072661;28;20029;-89
2021/06/24 07:55:58;;;;;;;6.15;3.88;;;17.30;91.50;;;;;;5069715;28;20024;-88
2021/06/24 07:58:24;;;;;;;4.90;2.90;;;17.30;91.60;;;;;;5064456;28;20035;-89
2021/06/24 08:00:49;;;;;;;5.55;3.17;;;17.30;91.50;;;;;;5045052;28;20473;-88
2021/06/24 08:03:15;;;;;;;5.15;2.78;;;17.30;91.40;;;;;;5057121;28;20524;-89
2021/06/24 08:05:41;;;;;;;4.43;2.53;;;17.30;91.30;;;;;;5077871;28;20362;-89
2021/06/24 08:08:10;;;;;;;5.18;2.70;;;17.30;91.30;;;;;;5078465;28;20039;-89
2021/06/24 08:10:38;;;;;;;5.93;3.00;;;17.40;91.30;;;;;;5060806;28;20024;-89
2021/06/24 08:13:12;;;;;;;4.55;2.80;;;17.40;91.30;;;;;;5077666;28;20016;-90
2021/06/24 08:15:40;;;;;;;5.20;2.50;;;17.40;91.20;;;;;;5061926;28;20036;-89
2021/06/24 08:18:11;;;;;;;3.78;2.38;;;17.40;91.30;;;;;;5047481;28;20024;-89
2021/06/24 08:20:39;;;;;;;5.55;2.72;;;17.50;91.30;;;;;;5070905;28;20116;-89
2021/06/24 08:23:19;;;;;;;4.35;2.75;;;17.50;91.10;;;;;;5071250;28;20036;-90
2021/06/24 08:25:45;;;;;;;3.58;2.45;;;17.50;91.10;;;;;;5060045;28;20043;-89
2021/06/24 08:28:14;;;;;;;3.13;2.15;;;17.50;91.00;;;;;;5077604;28;20043;-89
2021/06/24 08:31:14;;;;;;;4.93;2.75;;;17.50;90.80;;;;;;5057814;28;20036;-90
2021/06/24 08:33:33;;;;;;;4.22;2.60;;;17.50;90.50;;;;;;5075361;28;20106;-90
2021/06/24 08:36:04;;;;;;;5.25;2.60;;;17.50;90.70;;;;;;5077694;28;20089;-90
2021/06/24 08:38:32;;;;;;;;;;;17.50;90.70;;;;;;5078161;28;20020;-90
2021/06/24 08:40:59;;;;;;;3.85;2.25;;;17.50;90.60;;;;;;5057544;28;19918;-89
2021/06/24 08:43:25;;;;;;;3.78;2.40;;;17.50;90.70;;;;;;5077431;28;20016;-90
2021/06/24 08:45:59;;;;;;;4.82;2.45;;;17.50;90.70;;;;;;5071841;28;20664;-90
2021/06/24 08:48:38;;;;;;;4.90;2.90;;;17.60;90.50;;;;;;5057704;28;20040;-90
2021/06/24 08:51:06;;;;;;;5.25;2.78;;;17.60;90.60;;;;;;5062023;28;20051;-89
2021/06/24 08:53:41;;;;;;;5.28;2.50;;;17.60;90.70;;;;;;5065542;28;20032;-89
2021/06/24 08:56:44;;;;;;;;;;;;;;;;;;;;;
2021/06/24 08:59:19;;;;;;;4.50;2.70;;;17.70;90.70;;;;;;5109740;28;20107;-88
2021/06/24 09:01:52;;;;;;;4.63;2.60;;;17.70;90.70;;;;;;5099734;28;20031;-89
2021/06/24 09:04:31;;;;;;;4.72;2.55;;;17.70;90.50;;;;;;5069587;28;20020;-90
2021/06/24 09:07:16;;;;;;;4.57;2.58;;;17.70;90.70;;;;;;5073392;28;20028;-89
2021/06/24 09:09:55;;;;;;;4.97;2.55;;;17.80;90.70;;;;;;5080080;28;20054;-90
2021/06/24 09:12:25;;;;;;;6.50;2.92;;;17.80;90.60;;;;;;5077981;28;20028;-89
2021/06/24 09:15:09;;;;;;;3.83;2.85;;;17.80;90.50;;;;;;5056621;28;20036;-90
2021/06/24 09:18:22;;;;;;;3.80;2.58;;;17.80;90.60;;;;;;5075875;28;20056;-90
2021/06/24 09:20:56;;;;;;;3.33;2.40;;;17.90;90.70;;;;;;5075775;28;20146;-90
2021/06/24 09:23:25;;;;;;;3.85;2.65;;;17.90;90.60;;;;;;5059797;28;20028;-89
2021/06/24 09:26:14;;;;;;;5.28;2.70;;;17.90;90.70;;;;;;5076360;28;20020;-90
2021/06/24 09:29:00;;;;;;;;;;;;;;;;;;;;;
2021/06/24 09:31:46;;;;;;;;;;;;;;;;;;;;;
2021/06/24 09:34:21;;;;;;;5.07;2.88;;;17.90;90.60;;;;;;5085682;28;20029;-90
2021/06/24 09:37:00;;;;;;;5.35;3.17;;;18.00;90.70;;;;;;5059816;28;20081;-89
2021/06/24 09:39:57;;;;;;;5.20;2.83;;;18.00;90.50;;;;;;5057331;28;20075;-89
2021/06/24 09:42:35;;;;;;;6.32;3.30;;;18.00;90.40;;;;;;5080855;28;20028;-89
2021/06/24 09:45:13;;;;;;;6.07;3.42;;;18.00;90.40;;;;;;5077188;28;20457;-89
2021/06/24 09:47:39;;;;;;;5.00;3.22;;;18.00;90.60;;;;;;5095602;28;20028;-90
2021/06/24 09:50:14;;;;;;;5.35;3.05;;;18.00;90.60;;;;;;5095249;28;20038;-90
2021/06/24 09:52:49;;;;;;;3.95;3.25;;;18.00;90.60;;;;;;5051781;28;20086;-90
2021/06/24 09:58:32;;;;;;;4.95;3.30;;;18.00;90.60;;;;;;5041428;28;20552;-89
2021/06/24 10:01:32;;;;;;;4.57;3.20;;;18.00;90.60;;;;;;5061418;28;20027;-90
2021/06/24 10:07:50;;;;;;;6.53;3.40;;;18.10;90.90;;;;;;5088820;28;20024;-89
2021/06/24 10:10:42;;;;;;;6.22;2.97;;;18.10;90.70;;;;;;5059299;28;20430;-90
2021/06/24 10:13:26;;;;;;;7.22;3.10;;;18.10;90.60;;;;;;5041360;28;20541;-89
2021/06/24 10:16:18;;;;;;;4.50;2.97;;;18.10;90.50;;;;;;5087950;28;20024;-89
2021/06/24 10:19:08;;;;;;;7.20;3.30;;;18.10;90.30;;;;;;5087641;28;20035;-90
2021/06/24 10:21:57;;;;;;;5.30;2.92;;;18.10;90.30;;;;;;5066173;28;20127;-90
2021/06/24 10:25:07;;;;;;;;;;;;;;;;;;;;;
2021/06/24 10:30:43;;;;;;;5.43;3.28;;;18.20;90.50;;;;;;5101450;28;20070;-89
2021/06/24 10:36:21;;;;;;;5.55;3.70;;;18.20;90.60;;;;;;5089749;28;20024;-89
2021/06/24 10:38:53;;;;;;;6.93;3.72;;;18.20;90.70;;;;;;5070927;28;20126;-90
2021/06/24 10:41:21;;;;;;;5.65;3.45;;;18.20;90.50;;;;;;5067245;28;20027;-90
2021/06/24 10:43:57;;;;;;;4.57;3.40;;;18.30;90.60;;;;;;5058360;28;20060;-89
2021/06/24 10:47:17;;;;;;;5.43;3.60;;;18.30;90.70;;;;;;5073151;28;20028;-90
2021/06/24 10:50:30;;;;;;;5.30;3.93;;;18.30;90.60;;;;;;5069155;28;20127;-90
2021/06/24 10:53:11;;;;;;;7.80;4.15;;;18.30;90.80;;;;;;5091753;28;20122;-90
2021/06/24 10:55:40;;;;;;;;;;;18.30;90.70;;;;;;5081028;28;20508;-89
2021/06/24 10:58:21;;;;;;;7.18;4.13;;;18.30;90.90;;;;;;5095966;28;19903;-90
2021/06/24 11:00:56;;;;;;;5.80;3.88;;;18.30;90.90;;;;;;5065761;28;20024;-87
2021/06/24 11:03:31;;;;;;;5.55;3.78;;;18.30;90.40;;;;;;5080944;28;20036;-89
2021/06/24 11:06:51;;;;;;;;;;;;;;;;;;;;;
2021/06/24 11:09:31;;;;;;;5.35;3.55;;;18.30;90.80;;;;;;5078863;28;20029;-89
2021/06/24 11:12:08;;;;;;;5.68;3.70;;;18.40;90.90;;;;;;5068265;28;20419;-90
2021/06/24 11:15:05;;;;;;;7.63;4.25;;;18.30;90.80;;;;;;5056005;28;20451;-90
2021/06/24 11:17:52;;;;;;;5.88;4.25;;;18.30;90.80;;;;;;5072202;28;20032;-89
2021/06/24 11:20:19;;;;;;;6.82;4.07;;;18.30;90.80;;;;;;5066978;28;20461;-89
2021/06/24 11:22:56;;;;;;;7.75;4.80;;;18.30;90.70;;;;;;5074156;28;20477;-89
2021/06/24 11:25:34;;;;;;;6.97;4.78;;;18.30;90.40;;;;;;5085849;28;20080;-90
2021/06/24 11:29:11;;;;;;;;;;;;;;;;;;;;;
2021/06/24 11:37:21;;;;;;;5.05;4.00;;;18.30;90.30;;;;;;5066993;28;20024;-89
2021/06/24 11:40:03;;;;;;;6.75;4.10;;;18.30;90.40;;;;;;5075481;28;20028;-90
2021/06/24 11:42:40;;;;;;;5.35;4.15;;;18.30;90.40;;;;;;5072671;28;20028;-89
2021/06/24 11:48:04;;;;;;;7.82;4.53;;;18.30;90.30;;;;;;5061799;28;20150;-90
2021/06/24 12:05:10;;;;;;;6.85;4.85;;;18.40;90.40;;;;;;5045208;28;20029;-90
2021/06/24 12:07:42;;;;;;;7.55;4.38;;;18.50;90.30;;;;;;5061812;28;20036;-89
2021/06/24 12:10:40;;;;;;;9.75;5.05;;;18.50;90.30;;;;;;5062044;28;20063;-89
2021/06/24 12:13:26;;;;;;;6.88;4.72;;;18.50;90.10;;;;;;5033180;28;20029;-89
2021/06/24 12:15:56;;;;;;;7.65;5.07;;;18.50;90.20;;;;;;5057646;28;20024;-90
2021/06/24 12:18:54;;;;;;;8.18;5.00;;;18.50;90.30;;;;;;5057663;28;20403;-89
2021/06/24 12:21:20;;;;;;;6.88;4.55;;;18.50;90.40;;;;;;5049800;28;20509;-90
2021/06/24 12:24:31;;;;;;;5.45;4.15;;;18.60;90.50;;;;;;5040773;28;20021;-89
2021/06/24 12:27:41;;;;;;;5.97;4.57;;;18.60;90.30;;;;;;5056811;28;20100;-89
2021/06/24 12:30:43;;;;;;;6.07;4.35;;;18.60;90.20;;;;;;5060402;28;20075;-90
2021/06/24 12:33:13;;;;;;;6.97;4.68;;;18.60;90.40;;;;;;5017066;28;20401;-89
2021/06/24 12:35:49;;;;;;;6.72;4.95;;;18.60;90.50;;;;;;5068594;28;20020;-89
2021/06/24 12:38:44;;;;;;;6.15;4.75;;;18.60;90.30;;;;;;5076990;28;20343;-89
2021/06/24 12:41:17;;;;;;;7.05;4.55;;;18.60;90.40;;;;;;5077692;28;20091;-89
2021/06/24 12:43:48;;;;;;;7.20;4.82;;;18.60;90.30;;;;;;5066043;28;20020;-89
2021/06/24 12:46:14;;;;;;;8.40;5.25;;;18.70;90.50;;;;;;5044365;28;20051;-89
2021/06/24 12:49:22;;;;;;;7.32;5.10;;;18.70;90.60;;;;;;5077476;28;20031;-90
2021/06/24 12:51:48;;;;;;;8.00;5.10;;;18.70;90.40;;;;;;5090594;28;20083;-89
2021/06/24 12:54:43;;;;;;;7.53;5.57;;;18.70;90.50;;;;;;5063904;28;20165;-89
2021/06/24 12:57:24;;;;;;;8.00;5.90;;;18.70;90.10;;;;;;5074228;28;20059;-89
2021/06/24 12:59:55;;;;;;;6.97;4.63;;;18.70;89.80;;;;;;5064291;28;20184;-89
2021/06/24 13:05:46;;;;;;;11.23;5.68;;;18.80;90.10;;;;;;5096791;28;20082;-89
2021/06/24 13:08:16;;;;;;;5.90;4.95;;;18.80;90.20;;;;;;5075301;28;20034;-90
2021/06/24 13:10:58;;;;;;;7.45;4.90;;;18.80;90.00;;;;;;5056334;28;20044;-89
2021/06/24 13:13:53;;;;;;;8.27;5.55;;;18.80;90.10;;;;;;5052933;28;20040;-90
2021/06/24 13:16:34;;;;;;;8.38;5.00;;;18.80;90.20;;;;;;5074652;28;20098;-89
2021/06/24 13:19:24;;;;;;;6.63;4.90;;;18.90;90.30;;;;;;5066350;28;20031;-90
2021/06/24 13:21:52;;;;;;;7.65;5.00;;;18.90;90.30;;;;;;5062044;28;20039;-89
2021/06/24 13:24:21;;;;;;;7.03;5.07;;;18.90;90.20;;;;;;5076769;28;20035;-89
2021/06/24 13:27:24;;;;;;;7.07;5.30;;;18.90;90.20;;;;;;5062403;28;20017;-89
2021/06/24 13:30:04;;;;;;;6.05;4.35;;;19.00;90.20;;;;;;5069219;23;20052;-89
2021/06/24 13:32:51;;;;;;;8.77;5.60;;;19.00;90.40;;;;;;5055875;28;20022;-90
2021/06/24 13:35:19;;;;;;;7.40;4.75;;;19.00;90.40;;;;;;5055798;28;20027;-89
2021/06/24 13:37:51;;;;;;;6.75;4.82;;;19.10;90.30;;;;;;5056372;28;20067;-90
2021/06/24 13:40:39;;;;;;;7.90;5.13;;;19.10;90.20;;;;;;5055442;28;20020;-90
2021/06/24 13:43:08;;;;;;;8.20;5.53;;;19.10;90.40;;;;;;5074467;28;20373;-89
2021/06/24 13:45:45;;;;;;;7.50;5.53;;;19.10;90.00;;;;;;5075568;28;20016;-89
2021/06/24 13:48:27;;;;;;;8.60;5.93;;;19.20;90.20;;;;;;5075777;28;20119;-89
2021/06/24 13:51:03;;;;;;;9.10;5.68;;;19.20;90.30;;;;;;5043057;28;20149;-90
2021/06/24 13:53:43;;;;;;;7.65;5.95;;;19.20;90.40;;;;;;5075411;28;20036;-90
2021/06/24 13:56:09;;;;;;;9.60;5.55;;;19.20;90.20;;;;;;5080407;28;20024;-88